Decoded Metar for LRAR (ARAD in ROMANIA) (IATA:ARW) | Meteo·Mobile Aviation Weather
aviador You're here:

LRAR Decoded Metar

ARAD in ROMANIA
Report Time2018-08-21 12:00:00
UTC Time2018-08-21 12:11:05
Flight Rules vfr VFR
Wind180° at 04 kt
W.Decomp.*RWY 09: 0.3 kt HW 4.0 kt RCW
W.Rank180° ranks 4
Current wind is below 180° avg. (6.5)
Visibility9999 m
Phenomena:N/A
Clouds:N/A
Expected CloudBase > 8,800 ft AGL from Temp-Dew spread
CeilingNone
Temp33°C (ISA +19)
Dew Point11°C (26% RH)
Heat Index31.5°C
AAT31.9°C
QNH1015 hPa
Density Alt2,635 ft
Elevation387 ft
Report Wrong Elevation
Raw Report
METAR LRAR 211200Z 18004KT 130V240 CAVOK 33/11 Q1015=

Extra information for LRAR:More info

Metar Taf Metar & Taf Last 4 Metars F.Rules Stats Wind Profile Meteogram Temp Stats Airport Information Weather charts Add Link Nearby VenuesMetar ALERT Operation Metar Decoded Social comments